createdAt,value
2022-12-26T00:04:56.175Z,6.70
2022-12-26T00:09:58.624Z,6.70
2022-12-26T00:15:00.964Z,6.80
2022-12-26T00:20:03.784Z,6.80
2022-12-26T00:25:06.802Z,6.80
2022-12-26T00:30:09.594Z,6.80
2022-12-26T00:35:11.858Z,6.80
2022-12-26T00:40:14.145Z,6.90
2022-12-26T00:45:16.530Z,6.90
2022-12-26T00:50:18.998Z,6.90
2022-12-26T00:55:21.284Z,6.90
2022-12-26T01:00:23.622Z,7.00
2022-12-26T01:05:26.369Z,7.00
2022-12-26T01:10:28.774Z,7.00
2022-12-26T01:15:31.020Z,7.00
2022-12-26T01:20:33.573Z,7.00
2022-12-26T01:25:35.797Z,7.00
2022-12-26T01:30:38.383Z,7.00
2022-12-26T01:35:50.165Z,7.10
2022-12-26T01:41:11.382Z,7.00
2022-12-26T01:46:14.833Z,7.10
2022-12-26T01:51:21.381Z,7.10
2022-12-26T01:56:32.002Z,7.00
2022-12-26T02:01:36.778Z,7.00
2022-12-26T02:06:41.622Z,7.00
2022-12-26T02:12:36.139Z,7.00
2022-12-26T02:17:32.022Z,7.10
2022-12-26T02:23:05.355Z,7.10
2022-12-26T02:28:40.637Z,7.10
2022-12-26T02:33:46.262Z,7.10
2022-12-26T02:39:42.317Z,7.10
2022-12-26T02:45:11.204Z,7.10
2022-12-26T02:50:56.120Z,7.20
2022-12-26T02:56:23.705Z,7.20
2022-12-26T03:01:57.960Z,7.30
2022-12-26T03:07:22.579Z,7.30
2022-12-26T03:12:54.391Z,7.30
2022-12-26T03:18:05.526Z,7.40
2022-12-26T03:23:11.731Z,7.50
2022-12-26T03:28:14.245Z,7.50
2022-12-26T03:33:57.904Z,7.50
2022-12-26T03:39:46.383Z,7.50
2022-12-26T03:45:11.450Z,7.60
2022-12-26T03:50:44.487Z,7.50
2022-12-26T03:56:17.114Z,7.60
2022-12-26T04:01:41.943Z,7.70
2022-12-26T04:07:19.988Z,7.80
2022-12-26T04:12:45.729Z,7.80
2022-12-26T04:18:21.007Z,7.80
2022-12-26T04:23:59.078Z,7.80
2022-12-26T04:29:19.965Z,7.80
2022-12-26T04:35:00.630Z,7.80
2022-12-26T04:40:25.841Z,7.80
2022-12-26T04:45:28.498Z,7.80
2022-12-26T04:50:30.847Z,7.80
2022-12-26T04:55:35.793Z,7.80
2022-12-26T05:00:38.989Z,7.70
2022-12-26T05:06:02.526Z,7.80
2022-12-26T05:11:04.869Z,7.80
2022-12-26T05:16:26.767Z,7.80
2022-12-26T05:21:47.781Z,7.90
2022-12-26T05:27:08.895Z,7.80
2022-12-26T05:32:11.161Z,7.80
2022-12-26T05:37:13.416Z,7.90
2022-12-26T05:42:15.657Z,7.90
2022-12-26T05:47:17.935Z,7.90
2022-12-26T05:52:20.186Z,7.90
2022-12-26T05:57:22.474Z,7.90
2022-12-26T06:02:24.753Z,7.90
2022-12-26T06:07:27.123Z,7.90
2022-12-26T06:12:29.360Z,7.90
2022-12-26T06:17:31.695Z,7.90
2022-12-26T06:22:33.927Z,7.90
2022-12-26T06:27:36.725Z,7.90
2022-12-26T06:32:38.969Z,8.00
2022-12-26T06:37:41.234Z,7.90
2022-12-26T06:42:43.457Z,7.90
2022-12-26T06:47:46.437Z,7.90
2022-12-26T06:52:48.964Z,7.90
2022-12-26T06:57:53.155Z,7.90
2022-12-26T07:02:55.541Z,7.90
2022-12-26T07:07:57.926Z,7.80
2022-12-26T07:13:00.188Z,7.70
2022-12-26T07:18:03.024Z,7.80
2022-12-26T07:23:05.301Z,7.80
2022-12-26T07:28:07.595Z,7.90
2022-12-26T07:33:09.840Z,8.00
2022-12-26T07:38:15.028Z,8.00
2022-12-26T07:43:17.302Z,8.00
2022-12-26T07:48:19.628Z,8.10
2022-12-26T07:53:21.876Z,8.10
2022-12-26T07:58:24.115Z,8.20
2022-12-26T08:03:26.403Z,8.10
2022-12-26T08:08:28.706Z,8.10
2022-12-26T08:13:31.604Z,8.00
2022-12-26T08:18:34.144Z,8.00
2022-12-26T08:23:36.485Z,8.00
2022-12-26T08:28:39.171Z,8.20
2022-12-26T08:33:41.713Z,8.30
2022-12-26T08:38:44.042Z,8.40
2022-12-26T08:44:25.749Z,8.70
2022-12-26T08:49:15.637Z,8.90
2022-12-26T08:54:17.909Z,9.10
2022-12-26T08:59:20.287Z,9.20
2022-12-26T09:04:22.593Z,9.30
2022-12-26T09:09:24.875Z,9.40
2022-12-26T09:14:27.197Z,9.40
2022-12-26T09:19:32.967Z,9.50
2022-12-26T09:24:35.240Z,9.60
2022-12-26T09:29:40.492Z,9.70
2022-12-26T09:34:43.623Z,9.90
2022-12-26T09:39:46.927Z,10.00
2022-12-26T09:45:24.850Z,10.20
2022-12-26T09:50:38.297Z,10.40
2022-12-26T09:55:51.889Z,10.70
2022-12-26T10:01:13.222Z,10.70
2022-12-26T10:06:22.720Z,10.70
2022-12-26T10:11:39.385Z,10.80
2022-12-26T10:16:58.577Z,11.10
2022-12-26T10:22:14.812Z,11.10
2022-12-26T10:27:19.117Z,10.90
2022-12-26T10:32:38.137Z,10.90
2022-12-26T10:37:42.031Z,11.00
2022-12-26T10:42:48.182Z,10.90
2022-12-26T10:47:53.755Z,11.10
2022-12-26T10:52:58.387Z,11.10
2022-12-26T10:58:06.727Z,11.10
2022-12-26T11:03:13.601Z,11.20
2022-12-26T11:08:40.904Z,11.30
2022-12-26T11:13:51.536Z,11.40
2022-12-26T11:18:54.317Z,11.40
2022-12-26T11:24:08.954Z,11.40
2022-12-26T11:29:16.164Z,11.30
2022-12-26T11:34:35.259Z,11.20
2022-12-26T11:39:38.478Z,11.10
2022-12-26T11:44:45.370Z,11.00
2022-12-26T11:49:53.618Z,11.00
2022-12-26T11:54:55.923Z,11.00
2022-12-26T12:00:22.013Z,11.00
2022-12-26T12:05:42.590Z,11.10
2022-12-26T12:10:56.524Z,11.10
2022-12-26T12:16:33.369Z,11.10
2022-12-26T12:21:53.381Z,11.10
2022-12-26T12:27:08.022Z,11.10
2022-12-26T12:32:31.196Z,11.00
2022-12-26T12:38:04.979Z,10.90
2022-12-26T12:43:33.486Z,10.90
2022-12-26T12:48:55.506Z,11.00
2022-12-26T12:54:28.805Z,10.80
2022-12-26T12:59:52.081Z,10.80
2022-12-26T13:05:06.112Z,10.80
2022-12-26T13:10:21.689Z,10.80
2022-12-26T13:15:37.933Z,10.80
2022-12-26T13:21:08.668Z,10.70
2022-12-26T13:26:19.415Z,10.70
2022-12-26T13:31:22.288Z,10.70
2022-12-26T13:37:00.848Z,10.70
2022-12-26T13:42:27.620Z,10.80
2022-12-26T13:47:35.039Z,10.70
2022-12-26T13:52:40.231Z,10.70
2022-12-26T13:57:45.027Z,10.70
2022-12-26T14:03:29.618Z,10.70
2022-12-26T14:08:52.991Z,10.70
2022-12-26T14:14:18.336Z,10.60
2022-12-26T14:19:45.190Z,10.60
2022-12-26T14:24:47.448Z,10.60
2022-12-26T14:30:26.576Z,10.60
2022-12-26T14:35:40.252Z,10.50
2022-12-26T14:41:31.806Z,10.50
2022-12-26T14:46:38.537Z,10.40
2022-12-26T14:51:41.046Z,10.40
2022-12-26T14:56:43.595Z,10.40
2022-12-26T15:01:59.995Z,10.30
2022-12-26T15:07:39.282Z,10.30
2022-12-26T15:12:56.822Z,10.30
2022-12-26T15:18:47.466Z,10.30
2022-12-26T15:23:49.703Z,10.30
2022-12-26T15:29:14.580Z,10.30
2022-12-26T15:34:45.480Z,10.20
2022-12-26T15:40:08.134Z,10.20
2022-12-26T15:45:21.748Z,10.10
2022-12-26T15:51:07.441Z,10.00
2022-12-26T15:56:24.359Z,10.00
2022-12-26T16:01:45.039Z,10.00
2022-12-26T16:07:08.653Z,9.90
2022-12-26T16:12:21.541Z,9.90
2022-12-26T16:17:24.074Z,9.80
2022-12-26T16:22:47.291Z,9.70
2022-12-26T16:27:53.175Z,9.70
2022-12-26T16:32:55.940Z,9.70
2022-12-26T16:38:00.400Z,9.60
2022-12-26T16:43:02.703Z,9.70
2022-12-26T16:48:08.061Z,9.70
2022-12-26T16:53:16.845Z,9.70
2022-12-26T16:58:21.581Z,9.80
2022-12-26T17:03:38.522Z,9.80
2022-12-26T17:08:47.320Z,9.80
2022-12-26T17:13:53.915Z,9.70
2022-12-26T17:19:09.539Z,9.70
2022-12-26T17:24:26.390Z,9.60
2022-12-26T17:29:49.472Z,9.50
2022-12-26T17:34:51.786Z,9.50
2022-12-26T17:40:03.811Z,9.50
2022-12-26T17:45:06.661Z,9.50
2022-12-26T17:50:09.152Z,9.40
2022-12-26T17:55:16.873Z,9.30
2022-12-26T18:00:21.992Z,9.10
2022-12-26T18:05:24.364Z,9.10
2022-12-26T18:10:29.957Z,9.10
2022-12-26T18:15:32.259Z,9.00
2022-12-26T18:20:34.580Z,9.00
2022-12-26T18:25:37.978Z,9.00
2022-12-26T18:30:40.645Z,8.90
2022-12-26T18:35:44.731Z,8.80
2022-12-26T18:40:50.337Z,8.90
2022-12-26T18:45:53.227Z,8.90
2022-12-26T18:50:55.611Z,8.80
2022-12-26T18:55:58.151Z,8.80
2022-12-26T19:01:03.317Z,8.80
2022-12-26T19:06:05.819Z,8.90
2022-12-26T19:11:08.146Z,8.90
2022-12-26T19:16:10.978Z,8.90
2022-12-26T19:21:14.805Z,9.10
2022-12-26T19:26:18.617Z,9.00
2022-12-26T19:31:22.345Z,9.00
2022-12-26T19:36:24.650Z,9.00
2022-12-26T19:41:27.378Z,9.00
2022-12-26T19:46:29.720Z,9.00
2022-12-26T19:51:31.984Z,9.00
2022-12-26T19:56:34.508Z,9.10
2022-12-26T20:01:36.967Z,8.90
2022-12-26T20:06:39.780Z,9.00
2022-12-26T20:11:45.227Z,9.00
2022-12-26T20:17:08.574Z,9.00
2022-12-26T20:22:11.741Z,9.00
2022-12-26T20:27:14.428Z,9.00
2022-12-26T20:32:16.692Z,9.00
2022-12-26T20:37:19.293Z,9.00
2022-12-26T20:42:22.209Z,9.00
2022-12-26T20:47:24.463Z,9.00
2022-12-26T20:52:26.759Z,9.00
2022-12-26T20:57:29.000Z,8.90
2022-12-26T21:02:31.394Z,9.00
2022-12-26T21:07:33.850Z,9.00
2022-12-26T21:12:36.072Z,9.00
2022-12-26T21:17:38.313Z,9.00
2022-12-26T21:22:41.609Z,9.00
2022-12-26T21:27:46.428Z,9.00
2022-12-26T21:32:50.907Z,8.90
2022-12-26T21:37:53.245Z,9.00
2022-12-26T21:42:56.145Z,8.90
2022-12-26T21:47:58.400Z,8.90
2022-12-26T21:53:00.885Z,8.90
2022-12-26T21:58:04.001Z,8.90
2022-12-26T22:03:25.223Z,8.90
2022-12-26T22:08:27.589Z,8.90
2022-12-26T22:13:32.285Z,8.80
2022-12-26T22:18:37.357Z,8.80
2022-12-26T22:23:40.937Z,8.80
2022-12-26T22:28:44.214Z,8.80
2022-12-26T22:33:46.970Z,8.70
2022-12-26T22:38:49.410Z,8.70
2022-12-26T22:43:52.322Z,8.80
2022-12-26T22:48:54.626Z,8.80
2022-12-26T22:53:58.989Z,8.80
2022-12-26T22:59:02.158Z,8.70
2022-12-26T23:04:04.800Z,8.90
2022-12-26T23:09:13.025Z,8.90
2022-12-26T23:14:15.471Z,8.80
2022-12-26T23:20:06.320Z,8.70
2022-12-26T23:25:12.034Z,8.70
2022-12-26T23:30:20.528Z,8.70
2022-12-26T23:35:24.024Z,8.50
2022-12-26T23:40:26.476Z,8.20
2022-12-26T23:45:29.718Z,8.30
2022-12-26T23:50:32.000Z,8.20
2022-12-26T23:55:35.154Z,8.10
